sensor_id;sensor_type;location;lat;lon;timestamp;temperature;humidity
59505;DHT22;45321;53.200;5.814;2022-09-28T00:03:42;10.50;86.30
59505;DHT22;45321;53.200;5.814;2022-09-28T00:06:10;10.50;86.10
59505;DHT22;45321;53.200;5.814;2022-09-28T00:08:37;10.50;86.10
59505;DHT22;45321;53.200;5.814;2022-09-28T00:11:04;10.50;86.10
59505;DHT22;45321;53.200;5.814;2022-09-28T00:13:30;10.50;86.00
59505;DHT22;45321;53.200;5.814;2022-09-28T00:16:02;10.50;86.10
59505;DHT22;45321;53.200;5.814;2022-09-28T00:18:28;10.60;86.30
59505;DHT22;45321;53.200;5.814;2022-09-28T00:21:05;10.60;86.30
59505;DHT22;45321;53.200;5.814;2022-09-28T00:23:32;10.50;86.30
59505;DHT22;45321;53.200;5.814;2022-09-28T00:26:05;10.60;86.50
59505;DHT22;45321;53.200;5.814;2022-09-28T00:28:31;10.60;86.30
59505;DHT22;45321;53.200;5.814;2022-09-28T00:30:57;10.60;86.20
59505;DHT22;45321;53.200;5.814;2022-09-28T00:33:23;10.60;86.40
59505;DHT22;45321;53.200;5.814;2022-09-28T00:35:56;10.60;86.30
59505;DHT22;45321;53.200;5.814;2022-09-28T00:38:25;10.60;86.30
59505;DHT22;45321;53.200;5.814;2022-09-28T00:40:51;10.60;86.50
59505;DHT22;45321;53.200;5.814;2022-09-28T00:43:18;10.60;86.10
59505;DHT22;45321;53.200;5.814;2022-09-28T00:45:44;10.60;86.60
59505;DHT22;45321;53.200;5.814;2022-09-28T00:48:12;10.60;86.50
59505;DHT22;45321;53.200;5.814;2022-09-28T00:50:38;10.60;86.70
59505;DHT22;45321;53.200;5.814;2022-09-28T00:53:20;10.60;86.60
59505;DHT22;45321;53.200;5.814;2022-09-28T00:55:47;10.60;86.70
59505;DHT22;45321;53.200;5.814;2022-09-28T00:58:20;10.60;86.60
59505;DHT22;45321;53.200;5.814;2022-09-28T01:00:49;10.60;86.40
59505;DHT22;45321;53.200;5.814;2022-09-28T01:03:15;10.60;86.40
59505;DHT22;45321;53.200;5.814;2022-09-28T01:05:42;10.60;86.70
59505;DHT22;45321;53.200;5.814;2022-09-28T01:08:09;10.50;86.40
59505;DHT22;45321;53.200;5.814;2022-09-28T01:10:37;10.60;86.20
59505;DHT22;45321;53.200;5.814;2022-09-28T01:13:03;10.60;86.20
59505;DHT22;45321;53.200;5.814;2022-09-28T01:15:35;10.60;86.20
59505;DHT22;45321;53.200;5.814;2022-09-28T01:20:55;10.60;86.00
59505;DHT22;45321;53.200;5.814;2022-09-28T01:26:50;10.50;86.10
59505;DHT22;45321;53.200;5.814;2022-09-28T01:29:42;10.60;86.10
59505;DHT22;45321;53.200;5.814;2022-09-28T01:35:16;10.50;86.20
59505;DHT22;45321;53.200;5.814;2022-09-28T01:37:48;10.50;86.30
59505;DHT22;45321;53.200;5.814;2022-09-28T01:40:17;10.50;85.90
59505;DHT22;45321;53.200;5.814;2022-09-28T01:42:47;10.50;86.20
59505;DHT22;45321;53.200;5.814;2022-09-28T01:45:27;10.50;86.00
59505;DHT22;45321;53.200;5.814;2022-09-28T01:47:58;10.50;85.90
59505;DHT22;45321;53.200;5.814;2022-09-28T01:50:28;10.40;86.00
59505;DHT22;45321;53.200;5.814;2022-09-28T01:53:00;10.40;86.10
59505;DHT22;45321;53.200;5.814;2022-09-28T01:55:34;10.40;85.90
59505;DHT22;45321;53.200;5.814;2022-09-28T01:58:11;10.40;85.90
59505;DHT22;45321;53.200;5.814;2022-09-28T02:00:41;10.30;86.00
59505;DHT22;45321;53.200;5.814;2022-09-28T02:03:20;10.30;86.10
59505;DHT22;45321;53.200;5.814;2022-09-28T02:06:17;10.30;86.00
59505;DHT22;45321;53.200;5.814;2022-09-28T02:09:10;10.30;86.20
59505;DHT22;45321;53.200;5.814;2022-09-28T02:11:40;10.30;86.10
59505;DHT22;45321;53.200;5.814;2022-09-28T02:14:10;10.30;86.20
59505;DHT22;45321;53.200;5.814;2022-09-28T02:16:39;10.30;86.10
59505;DHT22;45321;53.200;5.814;2022-09-28T02:19:09;10.30;86.20
59505;DHT22;45321;53.200;5.814;2022-09-28T02:21:43;10.30;86.20
59505;DHT22;45321;53.200;5.814;2022-09-28T02:24:58;10.30;86.20
59505;DHT22;45321;53.200;5.814;2022-09-28T02:27:36;10.30;86.10
59505;DHT22;45321;53.200;5.814;2022-09-28T02:30:05;10.30;86.20
59505;DHT22;45321;53.200;5.814;2022-09-28T02:32:35;10.30;86.30
59505;DHT22;45321;53.200;5.814;2022-09-28T02:35:13;10.30;86.50
59505;DHT22;45321;53.200;5.814;2022-09-28T02:37:40;10.30;86.30
59505;DHT22;45321;53.200;5.814;2022-09-28T02:40:29;10.30;86.30
59505;DHT22;45321;53.200;5.814;2022-09-28T02:43:21;10.30;86.30
59505;DHT22;45321;53.200;5.814;2022-09-28T02:49:18;10.30;86.30
59505;DHT22;45321;53.200;5.814;2022-09-28T02:54:46;10.30;86.50
59505;DHT22;45321;53.200;5.814;2022-09-28T03:00:07;10.30;86.60
59505;DHT22;45321;53.200;5.814;2022-09-28T03:08:12;10.30;86.50
59505;DHT22;45321;53.200;5.814;2022-09-28T03:10:59;10.30;86.40
59505;DHT22;45321;53.200;5.814;2022-09-28T03:13:28;10.30;86.40
59505;DHT22;45321;53.200;5.814;2022-09-28T03:16:11;10.30;86.60
59505;DHT22;45321;53.200;5.814;2022-09-28T03:18:37;10.30;86.60
59505;DHT22;45321;53.200;5.814;2022-09-28T03:21:04;10.30;86.50
59505;DHT22;45321;53.200;5.814;2022-09-28T03:23:30;10.30;86.60
59505;DHT22;45321;53.200;5.814;2022-09-28T03:25:56;10.30;86.60
59505;DHT22;45321;53.200;5.814;2022-09-28T03:28:22;10.30;86.70
59505;DHT22;45321;53.200;5.814;2022-09-28T03:30:48;10.30;86.70
59505;DHT22;45321;53.200;5.814;2022-09-28T03:33:14;10.30;86.80
59505;DHT22;45321;53.200;5.814;2022-09-28T03:35:40;10.30;86.90
59505;DHT22;45321;53.200;5.814;2022-09-28T03:38:06;10.30;86.70
59505;DHT22;45321;53.200;5.814;2022-09-28T03:40:32;10.30;86.80
59505;DHT22;45321;53.200;5.814;2022-09-28T03:42:59;10.30;86.80
59505;DHT22;45321;53.200;5.814;2022-09-28T03:45:25;10.40;86.90
59505;DHT22;45321;53.200;5.814;2022-09-28T03:47:50;10.40;87.00
59505;DHT22;45321;53.200;5.814;2022-09-28T03:50:16;10.40;86.80
59505;DHT22;45321;53.200;5.814;2022-09-28T03:52:42;10.30;87.10
59505;DHT22;45321;53.200;5.814;2022-09-28T03:55:10;10.40;87.20
59505;DHT22;45321;53.200;5.814;2022-09-28T03:57:36;10.40;87.10
59505;DHT22;45321;53.200;5.814;2022-09-28T04:00:04;10.40;86.90
59505;DHT22;45321;53.200;5.814;2022-09-28T04:02:30;10.40;87.10
59505;DHT22;45321;53.200;5.814;2022-09-28T04:04:56;10.40;87.10
59505;DHT22;45321;53.200;5.814;2022-09-28T04:07:21;10.40;87.40
59505;DHT22;45321;53.200;5.814;2022-09-28T04:09:47;10.40;87.50
59505;DHT22;45321;53.200;5.814;2022-09-28T04:12:13;10.40;87.60
59505;DHT22;45321;53.200;5.814;2022-09-28T04:14:39;10.40;87.60
59505;DHT22;45321;53.200;5.814;2022-09-28T04:17:04;10.40;87.60
59505;DHT22;45321;53.200;5.814;2022-09-28T04:19:31;10.40;87.70
59505;DHT22;45321;53.200;5.814;2022-09-28T04:21:57;10.30;87.50
59505;DHT22;45321;53.200;5.814;2022-09-28T04:24:23;10.30;87.40
59505;DHT22;45321;53.200;5.814;2022-09-28T04:26:49;10.30;87.40
59505;DHT22;45321;53.200;5.814;2022-09-28T04:29:15;10.30;87.50
59505;DHT22;45321;53.200;5.814;2022-09-28T04:31:46;10.30;87.40
59505;DHT22;45321;53.200;5.814;2022-09-28T04:34:15;10.30;87.10
59505;DHT22;45321;53.200;5.814;2022-09-28T04:36:45;10.30;87.20
59505;DHT22;45321;53.200;5.814;2022-09-28T04:39:12;10.30;87.40
59505;DHT22;45321;53.200;5.814;2022-09-28T04:41:39;10.30;87.50
59505;DHT22;45321;53.200;5.814;2022-09-28T04:44:05;10.30;87.60
59505;DHT22;45321;53.200;5.814;2022-09-28T04:46:31;10.20;87.40
59505;DHT22;45321;53.200;5.814;2022-09-28T04:48:57;10.20;87.40
59505;DHT22;45321;53.200;5.814;2022-09-28T04:51:23;10.20;87.60
59505;DHT22;45321;53.200;5.814;2022-09-28T04:53:49;10.20;87.50
59505;DHT22;45321;53.200;5.814;2022-09-28T04:56:16;10.20;87.40
59505;DHT22;45321;53.200;5.814;2022-09-28T04:58:42;10.20;87.40
59505;DHT22;45321;53.200;5.814;2022-09-28T05:01:14;10.10;87.50
59505;DHT22;45321;53.200;5.814;2022-09-28T05:03:40;10.10;87.40
59505;DHT22;45321;53.200;5.814;2022-09-28T05:06:07;10.10;87.40
59505;DHT22;45321;53.200;5.814;2022-09-28T05:08:33;10.10;87.40
59505;DHT22;45321;53.200;5.814;2022-09-28T05:11:11;10.10;87.40
59505;DHT22;45321;53.200;5.814;2022-09-28T05:13:41;10.00;87.30
59505;DHT22;45321;53.200;5.814;2022-09-28T05:16:08;10.00;87.40
59505;DHT22;45321;53.200;5.814;2022-09-28T05:18:34;10.00;87.40
59505;DHT22;45321;53.200;5.814;2022-09-28T05:21:02;10.00;87.30
59505;DHT22;45321;53.200;5.814;2022-09-28T05:23:28;10.00;87.30
59505;DHT22;45321;53.200;5.814;2022-09-28T05:25:54;10.00;87.30
59505;DHT22;45321;53.200;5.814;2022-09-28T05:28:23;9.90;87.20
59505;DHT22;45321;53.200;5.814;2022-09-28T05:30:50;9.90;87.10
59505;DHT22;45321;53.200;5.814;2022-09-28T05:33:16;9.90;87.10
59505;DHT22;45321;53.200;5.814;2022-09-28T05:35:42;9.90;87.20
59505;DHT22;45321;53.200;5.814;2022-09-28T05:38:08;9.90;87.10
59505;DHT22;45321;53.200;5.814;2022-09-28T05:40:33;9.80;87.00
59505;DHT22;45321;53.200;5.814;2022-09-28T05:43:00;9.80;87.10
59505;DHT22;45321;53.200;5.814;2022-09-28T05:45:27;9.80;87.00
59505;DHT22;45321;53.200;5.814;2022-09-28T05:47:53;9.80;87.10
59505;DHT22;45321;53.200;5.814;2022-09-28T05:50:19;9.80;87.10
59505;DHT22;45321;53.200;5.814;2022-09-28T05:53:00;9.70;87.20
59505;DHT22;45321;53.200;5.814;2022-09-28T05:55:25;9.80;87.30
59505;DHT22;45321;53.200;5.814;2022-09-28T05:57:51;9.80;87.30
59505;DHT22;45321;53.200;5.814;2022-09-28T06:00:17;9.70;87.10
59505;DHT22;45321;53.200;5.814;2022-09-28T06:02:43;9.80;87.30
59505;DHT22;45321;53.200;5.814;2022-09-28T06:05:09;9.80;87.30
59505;DHT22;45321;53.200;5.814;2022-09-28T06:07:34;9.70;87.40
59505;DHT22;45321;53.200;5.814;2022-09-28T06:10:00;9.70;87.30
59505;DHT22;45321;53.200;5.814;2022-09-28T06:12:26;9.70;87.30
59505;DHT22;45321;53.200;5.814;2022-09-28T06:14:52;9.70;87.30
59505;DHT22;45321;53.200;5.814;2022-09-28T06:17:18;9.70;87.30
59505;DHT22;45321;53.200;5.814;2022-09-28T06:19:44;9.70;87.40
59505;DHT22;45321;53.200;5.814;2022-09-28T06:22:09;9.70;87.40
59505;DHT22;45321;53.200;5.814;2022-09-28T06:24:35;9.70;87.40
59505;DHT22;45321;53.200;5.814;2022-09-28T06:27:01;9.70;87.40
59505;DHT22;45321;53.200;5.814;2022-09-28T06:29:26;9.70;87.40
59505;DHT22;45321;53.200;5.814;2022-09-28T06:31:53;9.70;87.50
59505;DHT22;45321;53.200;5.814;2022-09-28T06:34:20;9.70;87.60
59505;DHT22;45321;53.200;5.814;2022-09-28T06:36:46;9.70;87.70
59505;DHT22;45321;53.200;5.814;2022-09-28T06:39:12;9.70;87.60
59505;DHT22;45321;53.200;5.814;2022-09-28T06:41:37;9.70;87.60
59505;DHT22;45321;53.200;5.814;2022-09-28T06:44:04;9.80;87.80
59505;DHT22;45321;53.200;5.814;2022-09-28T06:46:30;9.80;87.90
59505;DHT22;45321;53.200;5.814;2022-09-28T06:48:55;9.80;87.90
59505;DHT22;45321;53.200;5.814;2022-09-28T06:51:24;9.80;87.90
59505;DHT22;45321;53.200;5.814;2022-09-28T06:53:50;9.90;88.10
59505;DHT22;45321;53.200;5.814;2022-09-28T06:56:18;9.90;88.10
59505;DHT22;45321;53.200;5.814;2022-09-28T06:58:45;9.90;87.90
59505;DHT22;45321;53.200;5.814;2022-09-28T07:01:13;9.90;87.90
59505;DHT22;45321;53.200;5.814;2022-09-28T07:03:40;9.90;87.90
59505;DHT22;45321;53.200;5.814;2022-09-28T07:06:10;10.00;88.00
59505;DHT22;45321;53.200;5.814;2022-09-28T07:08:36;10.00;88.10
59505;DHT22;45321;53.200;5.814;2022-09-28T07:11:05;10.00;88.30
59505;DHT22;45321;53.200;5.814;2022-09-28T07:13:31;10.10;88.50
59505;DHT22;45321;53.200;5.814;2022-09-28T07:15:58;10.20;88.70
59505;DHT22;45321;53.200;5.814;2022-09-28T07:18:24;10.30;88.60
59505;DHT22;45321;53.200;5.814;2022-09-28T07:20:51;10.30;88.70
59505;DHT22;45321;53.200;5.814;2022-09-28T07:23:17;10.30;88.60
59505;DHT22;45321;53.200;5.814;2022-09-28T07:25:46;10.40;88.70
59505;DHT22;45321;53.200;5.814;2022-09-28T07:28:13;10.50;88.60
59505;DHT22;45321;53.200;5.814;2022-09-28T07:30:39;10.60;88.70
59505;DHT22;45321;53.200;5.814;2022-09-28T07:33:06;10.70;88.80
59505;DHT22;45321;53.200;5.814;2022-09-28T07:35:32;10.80;88.50
59505;DHT22;45321;53.200;5.814;2022-09-28T07:38:05;10.80;88.60
59505;DHT22;45321;53.200;5.814;2022-09-28T07:40:32;10.90;88.50
59505;DHT22;45321;53.200;5.814;2022-09-28T07:43:18;11.00;88.50
59505;DHT22;45321;53.200;5.814;2022-09-28T07:45:50;11.10;88.60
59505;DHT22;45321;53.200;5.814;2022-09-28T07:48:17;11.20;88.50
59505;DHT22;45321;53.200;5.814;2022-09-28T07:51:02;11.30;88.40
59505;DHT22;45321;53.200;5.814;2022-09-28T07:53:28;11.30;88.30
59505;DHT22;45321;53.200;5.814;2022-09-28T07:56:00;11.30;88.30
59505;DHT22;45321;53.200;5.814;2022-09-28T07:58:30;11.40;88.20
59505;DHT22;45321;53.200;5.814;2022-09-28T08:00:57;11.50;88.10
59505;DHT22;45321;53.200;5.814;2022-09-28T08:03:25;11.50;88.00
59505;DHT22;45321;53.200;5.814;2022-09-28T08:05:57;11.60;88.00
59505;DHT22;45321;53.200;5.814;2022-09-28T08:08:23;11.70;88.10
59505;DHT22;45321;53.200;5.814;2022-09-28T08:10:49;11.80;88.00
59505;DHT22;45321;53.200;5.814;2022-09-28T08:13:18;11.80;87.90
59505;DHT22;45321;53.200;5.814;2022-09-28T08:15:44;11.80;87.70
59505;DHT22;45321;53.200;5.814;2022-09-28T08:18:10;12.00;87.80
59505;DHT22;45321;53.200;5.814;2022-09-28T08:20:36;12.00;87.70
59505;DHT22;45321;53.200;5.814;2022-09-28T08:23:21;12.10;87.50
59505;DHT22;45321;53.200;5.814;2022-09-28T08:25:49;12.20;87.40
59505;DHT22;45321;53.200;5.814;2022-09-28T08:28:15;12.20;87.50
59505;DHT22;45321;53.200;5.814;2022-09-28T08:30:47;12.30;87.30
59505;DHT22;45321;53.200;5.814;2022-09-28T08:33:15;12.30;87.20
59505;DHT22;45321;53.200;5.814;2022-09-28T08:35:45;12.40;87.30
59505;DHT22;45321;53.200;5.814;2022-09-28T08:38:11;12.50;87.30
59505;DHT22;45321;53.200;5.814;2022-09-28T08:46:41;12.70;86.60
59505;DHT22;45321;53.200;5.814;2022-09-28T08:49:29;12.80;86.20
59505;DHT22;45321;53.200;5.814;2022-09-28T08:52:10;12.80;86.00
59505;DHT22;45321;53.200;5.814;2022-09-28T08:57:56;12.90;85.90
59505;DHT22;45321;53.200;5.814;2022-09-28T09:00:03;13.00;86.20
59505;DHT22;45321;53.200;5.814;2022-09-28T09:02:31;13.00;86.00
59505;DHT22;45321;53.200;5.814;2022-09-28T09:04:59;13.00;85.40
59505;DHT22;45321;53.200;5.814;2022-09-28T09:15:53;13.10;84.90
59505;DHT22;45321;53.200;5.814;2022-09-28T09:18:29;13.10;85.30
59505;DHT22;45321;53.200;5.814;2022-09-28T09:21:15;13.20;85.30
59505;DHT22;45321;53.200;5.814;2022-09-28T09:23:56;13.30;85.40
59505;DHT22;45321;53.200;5.814;2022-09-28T09:26:38;13.30;85.20
59505;DHT22;45321;53.200;5.814;2022-09-28T09:32:17;13.40;85.00
59505;DHT22;45321;53.200;5.814;2022-09-28T09:35:20;13.50;83.80
59505;DHT22;45321;53.200;5.814;2022-09-28T09:46:20;13.80;83.10
59505;DHT22;45321;53.200;5.814;2022-09-28T09:49:05;13.80;83.10
59505;DHT22;45321;53.200;5.814;2022-09-28T09:51:40;13.80;83.10
59505;DHT22;45321;53.200;5.814;2022-09-28T09:56:55;13.70;83.40
59505;DHT22;45321;53.200;5.814;2022-09-28T09:59:26;13.80;83.90
59505;DHT22;45321;53.200;5.814;2022-09-28T10:01:54;13.70;84.00
59505;DHT22;45321;53.200;5.814;2022-09-28T10:04:23;13.70;83.10
59505;DHT22;45321;53.200;5.814;2022-09-28T10:07:00;13.60;83.80
59505;DHT22;45321;53.200;5.814;2022-09-28T10:09:34;13.70;84.50
59505;DHT22;45321;53.200;5.814;2022-09-28T10:12:00;13.80;84.00
59505;DHT22;45321;53.200;5.814;2022-09-28T10:14:27;13.80;84.60
59505;DHT22;45321;53.200;5.814;2022-09-28T10:16:54;14.00;84.60
59505;DHT22;45321;53.200;5.814;2022-09-28T10:19:29;14.10;83.80
59505;DHT22;45321;53.200;5.814;2022-09-28T10:21:56;14.10;82.40
59505;DHT22;45321;53.200;5.814;2022-09-28T10:24:37;14.20;83.00
59505;DHT22;45321;53.200;5.814;2022-09-28T10:27:07;14.10;82.60
59505;DHT22;45321;53.200;5.814;2022-09-28T10:29:49;14.00;82.10
59505;DHT22;45321;53.200;5.814;2022-09-28T10:32:22;14.00;81.90
59505;DHT22;45321;53.200;5.814;2022-09-28T10:34:50;13.90;83.20
59505;DHT22;45321;53.200;5.814;2022-09-28T10:37:16;13.90;82.50
59505;DHT22;45321;53.200;5.814;2022-09-28T10:39:54;13.90;82.70
59505;DHT22;45321;53.200;5.814;2022-09-28T10:42:24;13.90;83.20
59505;DHT22;45321;53.200;5.814;2022-09-28T10:47:29;14.10;83.60
59505;DHT22;45321;53.200;5.814;2022-09-28T10:49:57;14.30;83.70
59505;DHT22;45321;53.200;5.814;2022-09-28T10:52:37;14.50;82.40
59505;DHT22;45321;53.200;5.814;2022-09-28T10:55:24;14.70;81.40
59505;DHT22;45321;53.200;5.814;2022-09-28T10:57:54;15.10;81.70
59505;DHT22;45321;53.200;5.814;2022-09-28T11:03:01;15.80;80.50
59505;DHT22;45321;53.200;5.814;2022-09-28T11:05:27;16.10;78.30
59505;DHT22;45321;53.200;5.814;2022-09-28T11:07:55;16.50;79.10
59505;DHT22;45321;53.200;5.814;2022-09-28T11:10:23;16.80;77.50
59505;DHT22;45321;53.200;5.814;2022-09-28T11:12:51;17.10;76.70
59505;DHT22;45321;53.200;5.814;2022-09-28T11:15:20;17.40;74.10
59505;DHT22;45321;53.200;5.814;2022-09-28T11:17:47;17.60;73.20
59505;DHT22;45321;53.200;5.814;2022-09-28T11:22:55;18.10;71.10
59505;DHT22;45321;53.200;5.814;2022-09-28T11:25:24;18.30;71.20
59505;DHT22;45321;53.200;5.814;2022-09-28T11:32:49;17.40;70.90
59505;DHT22;45321;53.200;5.814;2022-09-28T11:38:42;16.70;71.80
59505;DHT22;45321;53.200;5.814;2022-09-28T11:41:15;16.30;71.50
59505;DHT22;45321;53.200;5.814;2022-09-28T11:49:31;15.90;76.50
59505;DHT22;45321;53.200;5.814;2022-09-28T11:52:08;16.30;74.10
59505;DHT22;45321;53.200;5.814;2022-09-28T11:54:46;16.40;74.60
59505;DHT22;45321;53.200;5.814;2022-09-28T11:57:19;16.20;72.10
59505;DHT22;45321;53.200;5.814;2022-09-28T11:59:59;16.00;74.70
59505;DHT22;45321;53.200;5.814;2022-09-28T12:02:28;15.90;74.50
59505;DHT22;45321;53.200;5.814;2022-09-28T12:05:27;15.80;76.00
59505;DHT22;45321;53.200;5.814;2022-09-28T12:08:03;15.70;76.90
59505;DHT22;45321;53.200;5.814;2022-09-28T12:13:04;16.00;76.90
59505;DHT22;45321;53.200;5.814;2022-09-28T12:18:18;16.00;71.20
59505;DHT22;45321;53.200;5.814;2022-09-28T12:20:47;16.30;76.70
59505;DHT22;45321;53.200;5.814;2022-09-28T12:23:29;16.80;73.20
59505;DHT22;45321;53.200;5.814;2022-09-28T12:26:01;17.00;70.60
59505;DHT22;45321;53.200;5.814;2022-09-28T12:28:44;16.90;72.70
59505;DHT22;45321;53.200;5.814;2022-09-28T12:31:19;16.70;73.20
59505;DHT22;45321;53.200;5.814;2022-09-28T12:33:48;16.50;72.60
59505;DHT22;45321;53.200;5.814;2022-09-28T12:41:54;16.40;73.50
59505;DHT22;45321;53.200;5.814;2022-09-28T12:50:26;16.80;73.50
59505;DHT22;45321;53.200;5.814;2022-09-28T12:56:23;16.70;71.90
59505;DHT22;45321;53.200;5.814;2022-09-28T13:07:45;16.90;74.20
59505;DHT22;45321;53.200;5.814;2022-09-28T13:10:43;17.30;70.70
59505;DHT22;45321;53.200;5.814;2022-09-28T13:16:24;17.90;69.40
59505;DHT22;45321;53.200;5.814;2022-09-28T13:21:44;18.20;70.70
59505;DHT22;45321;53.200;5.814;2022-09-28T13:24:19;18.60;66.80
59505;DHT22;45321;53.200;5.814;2022-09-28T13:26:49;18.70;65.90
59505;DHT22;45321;53.200;5.814;2022-09-28T13:29:17;18.60;67.90
59505;DHT22;45321;53.200;5.814;2022-09-28T13:34:20;18.60;67.20
59505;DHT22;45321;53.200;5.814;2022-09-28T13:42:27;18.50;64.80
59505;DHT22;45321;53.200;5.814;2022-09-28T13:51:04;18.30;65.90
59505;DHT22;45321;53.200;5.814;2022-09-28T13:54:06;18.40;66.70
59505;DHT22;45321;53.200;5.814;2022-09-28T13:56:52;18.70;64.40
59505;DHT22;45321;53.200;5.814;2022-09-28T13:59:24;18.60;63.30
59505;DHT22;45321;53.200;5.814;2022-09-28T14:02:18;18.50;66.30
59505;DHT22;45321;53.200;5.814;2022-09-28T14:05:02;18.50;67.30
59505;DHT22;45321;53.200;5.814;2022-09-28T14:10:20;18.50;67.00
59505;DHT22;45321;53.200;5.814;2022-09-28T14:12:50;18.40;64.60
59505;DHT22;45321;53.200;5.814;2022-09-28T14:15:37;18.40;64.60
59505;DHT22;45321;53.200;5.814;2022-09-28T14:18:20;18.40;65.00
59505;DHT22;45321;53.200;5.814;2022-09-28T14:20:59;18.30;64.80
59505;DHT22;45321;53.200;5.814;2022-09-28T14:23:56;18.40;65.70
59505;DHT22;45321;53.200;5.814;2022-09-28T14:29:26;18.70;63.90
59505;DHT22;45321;53.200;5.814;2022-09-28T14:31:59;18.80;63.30
59505;DHT22;45321;53.200;5.814;2022-09-28T14:34:46;18.80;60.90
59505;DHT22;45321;53.200;5.814;2022-09-28T14:37:31;18.80;63.00
59505;DHT22;45321;53.200;5.814;2022-09-28T14:40:18;18.80;64.50
59505;DHT22;45321;53.200;5.814;2022-09-28T14:43:34;18.80;61.90
59505;DHT22;45321;53.200;5.814;2022-09-28T14:59:40;19.00;64.00
59505;DHT22;45321;53.200;5.814;2022-09-28T15:05:11;19.20;62.20
59505;DHT22;45321;53.200;5.814;2022-09-28T15:07:47;19.30;62.60
59505;DHT22;45321;53.200;5.814;2022-09-28T15:13:03;20.00;59.60
59505;DHT22;45321;53.200;5.814;2022-09-28T15:15:35;20.00;59.60
59505;DHT22;45321;53.200;5.814;2022-09-28T15:20:53;20.20;59.80
59505;DHT22;45321;53.200;5.814;2022-09-28T15:23:34;20.00;59.40
59505;DHT22;45321;53.200;5.814;2022-09-28T15:26:01;19.60;58.60
59505;DHT22;45321;53.200;5.814;2022-09-28T15:28:27;19.20;60.30
59505;DHT22;45321;53.200;5.814;2022-09-28T15:31:03;19.10;62.20
59505;DHT22;45321;53.200;5.814;2022-09-28T15:33:33;18.80;61.40
59505;DHT22;45321;53.200;5.814;2022-09-28T15:36:25;18.70;61.30
59505;DHT22;45321;53.200;5.814;2022-09-28T15:39:01;18.60;62.30
59505;DHT22;45321;53.200;5.814;2022-09-28T15:41:28;18.50;63.00
59505;DHT22;45321;53.200;5.814;2022-09-28T15:46:43;18.50;63.10
59505;DHT22;45321;53.200;5.814;2022-09-28T15:49:35;18.50;62.30
59505;DHT22;45321;53.200;5.814;2022-09-28T15:52:01;18.70;63.20
59505;DHT22;45321;53.200;5.814;2022-09-28T15:54:30;19.40;59.90
59505;DHT22;45321;53.200;5.814;2022-09-28T15:57:00;20.20;59.50
59505;DHT22;45321;53.200;5.814;2022-09-28T15:59:35;20.70;58.00
59505;DHT22;45321;53.200;5.814;2022-09-28T16:02:18;20.70;57.00
59505;DHT22;45321;53.200;5.814;2022-09-28T16:04:55;20.60;58.00
59505;DHT22;45321;53.200;5.814;2022-09-28T16:07:37;20.50;57.50
59505;DHT22;45321;53.200;5.814;2022-09-28T16:12:54;20.60;57.80
59505;DHT22;45321;53.200;5.814;2022-09-28T16:15:29;20.20;57.40
59505;DHT22;45321;53.200;5.814;2022-09-28T16:17:57;19.80;58.40
59505;DHT22;45321;53.200;5.814;2022-09-28T16:20:38;19.50;56.90
59505;DHT22;45321;53.200;5.814;2022-09-28T16:23:08;19.10;57.10
59505;DHT22;45321;53.200;5.814;2022-09-28T16:25:54;18.80;58.40
59505;DHT22;45321;53.200;5.814;2022-09-28T16:28:46;18.60;59.70
59505;DHT22;45321;53.200;5.814;2022-09-28T16:36:15;17.90;61.30
59505;DHT22;45321;53.200;5.814;2022-09-28T16:38:45;17.80;62.50
59505;DHT22;45321;53.200;5.814;2022-09-28T16:41:17;17.60;63.10
59505;DHT22;45321;53.200;5.814;2022-09-28T16:43:44;17.50;63.80
59505;DHT22;45321;53.200;5.814;2022-09-28T16:46:12;17.40;63.10
59505;DHT22;45321;53.200;5.814;2022-09-28T16:48:44;17.30;63.70
59505;DHT22;45321;53.200;5.814;2022-09-28T16:51:14;17.20;64.70
59505;DHT22;45321;53.200;5.814;2022-09-28T16:53:40;17.10;64.40
59505;DHT22;45321;53.200;5.814;2022-09-28T16:56:30;17.00;64.50
59505;DHT22;45321;53.200;5.814;2022-09-28T16:58:56;16.90;65.40
59505;DHT22;45321;53.200;5.814;2022-09-28T17:01:22;16.80;65.30
59505;DHT22;45321;53.200;5.814;2022-09-28T17:03:48;16.70;65.00
59505;DHT22;45321;53.200;5.814;2022-09-28T17:06:19;16.70;65.00
59505;DHT22;45321;53.200;5.814;2022-09-28T17:08:46;16.60;65.60
59505;DHT22;45321;53.200;5.814;2022-09-28T17:11:16;16.50;66.00
59505;DHT22;45321;53.200;5.814;2022-09-28T17:13:43;16.40;66.30
59505;DHT22;45321;53.200;5.814;2022-09-28T17:16:14;16.30;65.40
59505;DHT22;45321;53.200;5.814;2022-09-28T17:18:42;16.30;65.20
59505;DHT22;45321;53.200;5.814;2022-09-28T17:21:17;16.20;66.10
59505;DHT22;45321;53.200;5.814;2022-09-28T17:23:47;16.10;65.90
59505;DHT22;45321;53.200;5.814;2022-09-28T17:26:24;16.00;66.30
59505;DHT22;45321;53.200;5.814;2022-09-28T17:28:56;16.00;65.50
59505;DHT22;45321;53.200;5.814;2022-09-28T17:31:27;15.90;66.00
59505;DHT22;45321;53.200;5.814;2022-09-28T17:33:53;15.90;67.10
59505;DHT22;45321;53.200;5.814;2022-09-28T17:36:20;15.80;67.00
59505;DHT22;45321;53.200;5.814;2022-09-28T17:38:46;15.70;67.50
59505;DHT22;45321;53.200;5.814;2022-09-28T17:41:14;15.70;67.20
59505;DHT22;45321;53.200;5.814;2022-09-28T17:43:40;15.70;68.00
59505;DHT22;45321;53.200;5.814;2022-09-28T17:46:33;15.70;68.00
59505;DHT22;45321;53.200;5.814;2022-09-28T17:49:02;15.60;67.60
59505;DHT22;45321;53.200;5.814;2022-09-28T17:51:34;15.60;67.60
59505;DHT22;45321;53.200;5.814;2022-09-28T17:54:02;15.60;68.30
59505;DHT22;45321;53.200;5.814;2022-09-28T17:56:31;15.60;68.70
59505;DHT22;45321;53.200;5.814;2022-09-28T17:58:59;15.50;68.80
59505;DHT22;45321;53.200;5.814;2022-09-28T18:01:26;15.40;69.50
59505;DHT22;45321;53.200;5.814;2022-09-28T18:04:02;15.30;69.50
59505;DHT22;45321;53.200;5.814;2022-09-28T18:06:28;15.30;69.80
59505;DHT22;45321;53.200;5.814;2022-09-28T18:08:54;15.20;69.70
59505;DHT22;45321;53.200;5.814;2022-09-28T18:11:20;15.20;70.20
59505;DHT22;45321;53.200;5.814;2022-09-28T18:13:45;15.10;70.40
59505;DHT22;45321;53.200;5.814;2022-09-28T18:16:12;15.00;70.70
59505;DHT22;45321;53.200;5.814;2022-09-28T18:18:39;14.90;71.00
59505;DHT22;45321;53.200;5.814;2022-09-28T18:21:08;14.90;71.30
59505;DHT22;45321;53.200;5.814;2022-09-28T18:23:34;14.80;71.40
59505;DHT22;45321;53.200;5.814;2022-09-28T18:26:01;14.80;71.60
59505;DHT22;45321;53.200;5.814;2022-09-28T18:28:27;14.80;71.80
59505;DHT22;45321;53.200;5.814;2022-09-28T18:30:52;14.70;72.10
59505;DHT22;45321;53.200;5.814;2022-09-28T18:33:18;14.60;72.20
59505;DHT22;45321;53.200;5.814;2022-09-28T18:35:52;14.60;72.30
59505;DHT22;45321;53.200;5.814;2022-09-28T18:38:19;14.50;72.30
59505;DHT22;45321;53.200;5.814;2022-09-28T18:40:45;14.50;72.70
59505;DHT22;45321;53.200;5.814;2022-09-28T18:43:11;14.40;72.80
59505;DHT22;45321;53.200;5.814;2022-09-28T18:45:39;14.30;72.70